Time;durP1;ratioP1;P1;durP2;ratioP2;P2;SDS_P1;SDS_P2;PMS_P1;PMS_P2;Temp;Humidity;BMP_temperature;BMP_pressure;BME280_temperature;BME280_humidity;BME280_pressure;Samples;Min_cycle;Max_cycle;Signal;HPM_P1;HPM_P2
2020/12/16 00:01:55;;;;;;;22.63;16.77;;;;;;;;;;5095997;28;20558;-72
2020/12/16 00:04:26;;;;;;;24.23;16.53;;;;;;;;;;5088832;28;20456;-72
2020/12/16 00:06:55;;;;;;;27.37;17.40;;;;;;;;;;5097602;28;20467;-71
2020/12/16 00:09:28;;;;;;;28.07;16.87;;;;;;;;;;5097330;28;20456;-72
2020/12/16 00:12:00;;;;;;;27.70;17.70;;;;;;;;;;5097596;28;20483;-72
2020/12/16 00:14:32;;;;;;;32.37;18.40;;;;;;;;;;5090717;28;20464;-71
2020/12/16 00:17:02;;;;;;;29.33;18.20;;;;;;;;;;5077968;28;20544;-72
2020/12/16 00:19:37;;;;;;;28.33;17.57;;;;;;;;;;5076698;28;20445;-72
2020/12/16 00:22:08;;;;;;;27.40;18.70;;;;;;;;;;5080635;28;20543;-72
2020/12/16 00:24:37;;;;;;;26.30;17.27;;;;;;;;;;5097522;28;20463;-72
2020/12/16 00:27:08;;;;;;;27.47;16.60;;;;;;;;;;5094896;28;20475;-72
2020/12/16 00:29:44;;;;;;;26.07;17.17;;;;;;;;;;5078248;28;20464;-73
2020/12/16 00:32:16;;;;;;;31.53;18.33;;;;;;;;;;5077203;28;20701;-72
2020/12/16 00:34:43;;;;;;;26.77;16.67;;;;;;;;;;5077122;28;20492;-72
2020/12/16 00:37:10;;;;;;;27.37;18.10;;;;;;;;;;5077201;28;20450;-71
2020/12/16 00:39:38;;;;;;;27.53;16.37;;;;;;;;;;5082384;28;20453;-72
2020/12/16 00:42:08;;;;;;;26.57;17.43;;;;;;;;;;5110737;28;20908;-72
2020/12/16 00:44:38;;;;;;;25.60;16.90;;;;;;;;;;5115758;28;20487;-72
2020/12/16 00:47:12;;;;;;;26.10;16.03;;;;;;;;;;5096353;28;20452;-73
2020/12/16 00:49:42;;;;;;;25.07;15.57;;;;;;;;;;5096455;28;20874;-72
2020/12/16 00:52:12;;;;;;;24.73;15.57;;;;;;;;;;5096751;28;20444;-72
2020/12/16 00:54:40;;;;;;;20.83;14.27;;;;;;;;;;5096732;28;20540;-72
2020/12/16 00:57:08;;;;;;;22.57;15.37;;;;;;;;;;5100200;28;20504;-72
2020/12/16 00:59:36;;;;;;;27.13;16.33;;;;;;;;;;5116570;28;20475;-72
2020/12/16 01:02:04;;;;;;;21.40;14.57;;;;;;;;;;5116388;28;20752;-72
2020/12/16 01:04:31;;;;;;;21.37;15.13;;;;;;;;;;5117188;28;20459;-72
2020/12/16 01:07:01;;;;;;;18.07;13.90;;;;;;;;;;5116738;28;20492;-72
2020/12/16 01:09:28;;;;;;;24.10;16.37;;;;;;;;;;5116178;28;20458;-72
2020/12/16 01:11:55;;;;;;;21.70;14.50;;;;;;;;;;5105473;28;20477;-72
2020/12/16 01:14:23;;;;;;;22.83;13.30;;;;;;;;;;5076552;28;20465;-71
2020/12/16 01:16:51;;;;;;;20.47;14.13;;;;;;;;;;5077540;28;20537;-72
2020/12/16 01:19:20;;;;;;;19.10;12.10;;;;;;;;;;5086396;28;20456;-72
2020/12/16 01:21:49;;;;;;;20.00;13.80;;;;;;;;;;5115496;28;20443;-72
2020/12/16 01:24:16;;;;;;;23.57;13.53;;;;;;;;;;5116896;28;20939;-72
2020/12/16 01:26:46;;;;;;;20.20;13.20;;;;;;;;;;5096053;28;20986;-71
2020/12/16 01:29:14;;;;;;;17.60;13.03;;;;;;;;;;5090713;28;20543;-71
2020/12/16 01:31:44;;;;;;;18.97;12.33;;;;;;;;;;5094818;28;20479;-72
2020/12/16 01:34:11;;;;;;;19.13;12.23;;;;;;;;;;5096331;28;20452;-71
2020/12/16 01:36:39;;;;;;;18.83;11.83;;;;;;;;;;5086786;28;20578;-72
2020/12/16 01:39:07;;;;;;;19.53;12.33;;;;;;;;;;5076256;28;20483;-71
2020/12/16 01:41:34;;;;;;;18.37;11.97;;;;;;;;;;5076253;28;20456;-72
2020/12/16 01:44:13;;;;;;;16.70;11.23;;;;;;;;;;5076809;28;20463;-71
2020/12/16 01:46:47;;;;;;;19.67;12.83;;;;;;;;;;5076059;28;20728;-71
2020/12/16 01:49:14;;;;;;;19.13;12.87;;;;;;;;;;5076239;28;20460;-71
2020/12/16 01:51:46;;;;;;;19.50;12.83;;;;;;;;;;5076112;28;20485;-71
2020/12/16 01:54:15;;;;;;;17.80;13.27;;;;;;;;;;5075806;28;20463;-71
2020/12/16 01:56:43;;;;;;;21.70;14.50;;;;;;;;;;5076060;28;20449;-72
2020/12/16 01:59:10;;;;;;;22.27;14.83;;;;;;;;;;5087443;28;20452;-72
2020/12/16 02:01:45;;;;;;;22.53;13.23;;;;;;;;;;5095884;28;20529;-72
2020/12/16 02:04:14;;;;;;;18.70;11.97;;;;;;;;;;5090009;28;20453;-72
2020/12/16 02:06:41;;;;;;;21.57;14.70;;;;;;;;;;5075589;28;20459;-71
2020/12/16 02:09:09;;;;;;;25.40;14.50;;;;;;;;;;5075891;28;20496;-71
2020/12/16 02:11:37;;;;;;;23.83;13.90;;;;;;;;;;5075874;28;20492;-71
2020/12/16 02:14:08;;;;;;;24.27;14.73;;;;;;;;;;5076089;28;20471;-71
2020/12/16 02:16:36;;;;;;;23.13;13.83;;;;;;;;;;5076549;28;20453;-71
2020/12/16 02:19:04;;;;;;;25.83;15.37;;;;;;;;;;5079392;28;20555;-72
2020/12/16 02:21:33;;;;;;;20.03;13.00;;;;;;;;;;5095820;28;20464;-71
2020/12/16 02:24:04;;;;;;;18.40;12.80;;;;;;;;;;5076323;28;20456;-72
2020/12/16 02:26:33;;;;;;;20.57;12.97;;;;;;;;;;5075263;28;20456;-72
2020/12/16 02:29:00;;;;;;;17.77;11.70;;;;;;;;;;5074552;28;20555;-72
2020/12/16 02:31:29;;;;;;;19.67;13.73;;;;;;;;;;5076358;28;20483;-72
2020/12/16 02:33:57;;;;;;;20.87;13.57;;;;;;;;;;5114585;28;21037;-72
2020/12/16 02:36:24;;;;;;;20.23;14.23;;;;;;;;;;5119492;28;20447;-71
2020/12/16 02:38:53;;;;;;;24.30;14.10;;;;;;;;;;5082797;28;20464;-71
2020/12/16 02:41:31;;;;;;;19.23;12.97;;;;;;;;;;5086506;28;20782;-73
2020/12/16 02:44:06;;;;;;;22.27;13.40;;;;;;;;;;5078108;28;20455;-73
2020/12/16 02:46:34;;;;;;;26.40;15.17;;;;;;;;;;5078580;28;20451;-72
2020/12/16 02:49:03;;;;;;;24.60;13.27;;;;;;;;;;5079917;28;20472;-72
2020/12/16 02:51:30;;;;;;;22.07;13.57;;;;;;;;;;5077794;28;20535;-72
2020/12/16 02:53:58;;;;;;;20.50;13.93;;;;;;;;;;5078636;28;20448;-72
2020/12/16 02:56:25;;;;;;;18.83;12.47;;;;;;;;;;5081137;28;20472;-72
2020/12/16 02:58:52;;;;;;;23.70;13.73;;;;;;;;;;5092318;28;20967;-72
2020/12/16 03:01:20;;;;;;;19.77;12.50;;;;;;;;;;5095104;28;20466;-72
2020/12/16 03:03:48;;;;;;;22.17;13.97;;;;;;;;;;5099033;28;20525;-72
2020/12/16 03:06:15;;;;;;;18.70;12.40;;;;;;;;;;5099354;28;20452;-73
2020/12/16 03:08:43;;;;;;;19.30;12.67;;;;;;;;;;5082024;28;20461;-72
2020/12/16 03:11:16;;;;;;;20.13;12.27;;;;;;;;;;5095848;28;20516;-72
2020/12/16 03:13:44;;;;;;;20.40;13.60;;;;;;;;;;5091071;28;20490;-73
2020/12/16 03:16:11;;;;;;;21.10;14.63;;;;;;;;;;5079934;28;20492;-72
2020/12/16 03:18:39;;;;;;;19.57;13.47;;;;;;;;;;5077743;28;21042;-72
2020/12/16 03:21:06;;;;;;;22.03;11.87;;;;;;;;;;5077971;28;20457;-72
2020/12/16 03:23:36;;;;;;;19.67;11.30;;;;;;;;;;5087445;28;20479;-72
2020/12/16 03:26:04;;;;;;;19.37;12.70;;;;;;;;;;5092478;28;20854;-72
2020/12/16 03:28:32;;;;;;;20.53;13.50;;;;;;;;;;5078110;28;20461;-71
2020/12/16 03:30:59;;;;;;;20.63;12.57;;;;;;;;;;5078030;28;20496;-71
2020/12/16 03:33:26;;;;;;;22.30;13.63;;;;;;;;;;5108022;28;20740;-71
2020/12/16 03:35:54;;;;;;;22.17;14.47;;;;;;;;;;5088463;28;20459;-72
2020/12/16 03:38:21;;;;;;;22.70;13.87;;;;;;;;;;5094355;28;20459;-72
2020/12/16 03:40:48;;;;;;;25.20;15.43;;;;;;;;;;5097882;28;20478;-72
2020/12/16 03:43:16;;;;;;;26.63;14.10;;;;;;;;;;5097098;28;20448;-73
2020/12/16 03:45:44;;;;;;;23.27;14.97;;;;;;;;;;5080781;28;20445;-72
2020/12/16 03:48:11;;;;;;;26.20;13.93;;;;;;;;;;5089558;28;20768;-73
2020/12/16 03:50:42;;;;;;;23.80;14.10;;;;;;;;;;5098463;28;20745;-72
2020/12/16 03:53:10;;;;;;;20.97;13.50;;;;;;;;;;5078683;28;20441;-73
2020/12/16 03:55:37;;;;;;;24.60;14.63;;;;;;;;;;5077918;28;20449;-73
2020/12/16 03:58:04;;;;;;;29.20;17.03;;;;;;;;;;5077446;28;20457;-73
2020/12/16 04:00:32;;;;;;;26.90;16.73;;;;;;;;;;5077625;28;20456;-73
2020/12/16 04:02:59;;;;;;;28.23;15.20;;;;;;;;;;5077255;28;20860;-72
2020/12/16 04:05:26;;;;;;;25.07;14.13;;;;;;;;;;5077249;28;20539;-72
2020/12/16 04:07:53;;;;;;;27.13;15.93;;;;;;;;;;5077639;28;20453;-72
2020/12/16 04:10:21;;;;;;;26.67;15.00;;;;;;;;;;5090478;28;20487;-72
2020/12/16 04:12:48;;;;;;;24.10;15.10;;;;;;;;;;5096871;28;20448;-74
2020/12/16 04:15:15;;;;;;;26.60;16.03;;;;;;;;;;5098051;28;20455;-72
2020/12/16 04:17:42;;;;;;;32.13;17.07;;;;;;;;;;5095638;28;20811;-72
2020/12/16 04:20:09;;;;;;;23.50;14.70;;;;;;;;;;5096989;28;20455;-72
2020/12/16 04:22:37;;;;;;;26.17;15.47;;;;;;;;;;5097504;28;20452;-72
2020/12/16 04:25:04;;;;;;;28.50;15.63;;;;;;;;;;5096450;28;20888;-72
2020/12/16 04:27:32;;;;;;;28.37;15.57;;;;;;;;;;5096904;28;20449;-72
2020/12/16 04:29:59;;;;;;;28.40;16.10;;;;;;;;;;5097486;28;20463;-72
2020/12/16 04:32:26;;;;;;;27.70;15.30;;;;;;;;;;5096894;28;20705;-71
2020/12/16 04:34:54;;;;;;;27.13;14.60;;;;;;;;;;5096133;28;20475;-72
2020/12/16 04:37:21;;;;;;;28.00;14.37;;;;;;;;;;5096180;28;20432;-72
2020/12/16 04:39:48;;;;;;;26.63;14.83;;;;;;;;;;5095992;28;20459;-71
2020/12/16 04:42:15;;;;;;;28.17;16.13;;;;;;;;;;5096303;28;20505;-72
2020/12/16 04:44:46;;;;;;;27.47;15.83;;;;;;;;;;5096486;28;20452;-71
2020/12/16 04:47:13;;;;;;;33.90;17.57;;;;;;;;;;5096438;28;20491;-73
2020/12/16 04:49:40;;;;;;;31.67;16.10;;;;;;;;;;5096378;28;20466;-72
2020/12/16 04:52:07;;;;;;;31.47;16.47;;;;;;;;;;5096058;28;20722;-73
2020/12/16 04:54:35;;;;;;;34.10;17.20;;;;;;;;;;5096075;28;20736;-73
2020/12/16 04:57:06;;;;;;;37.53;18.53;;;;;;;;;;5096170;28;20448;-73
2020/12/16 04:59:33;;;;;;;80.07;17.93;;;;;;;;;;5095864;28;20872;-73
2020/12/16 05:02:04;;;;;;;97.63;19.90;;;;;;;;;;5096517;28;20456;-73
2020/12/16 05:04:35;;;;;;;114.80;23.10;;;;;;;;;;5088162;28;20468;-73
2020/12/16 05:07:02;;;;;;;122.03;21.37;;;;;;;;;;5092003;28;20458;-73
2020/12/16 05:09:29;;;;;;;103.07;19.20;;;;;;;;;;5095562;28;20459;-72
2020/12/16 05:11:59;;;;;;;103.57;19.03;;;;;;;;;;5076250;28;20508;-73
2020/12/16 05:14:30;;;;;;;103.37;19.63;;;;;;;;;;5076359;28;20496;-73
2020/12/16 05:17:11;;;;;;;76.20;19.67;;;;;;;;;;5075581;28;20450;-73
2020/12/16 05:19:42;;;;;;;121.03;22.00;;;;;;;;;;5076256;28;20506;-73
2020/12/16 05:22:17;;;;;;;88.60;21.17;;;;;;;;;;5081051;28;20454;-73
2020/12/16 05:24:49;;;;;;;78.23;17.83;;;;;;;;;;5076114;28;20463;-72
2020/12/16 05:27:18;;;;;;;82.80;20.63;;;;;;;;;;5076132;28;20514;-72
2020/12/16 05:29:45;;;;;;;83.17;19.07;;;;;;;;;;5076041;28;20907;-72
2020/12/16 05:32:23;;;;;;;83.77;20.37;;;;;;;;;;5076221;28;20519;-72
2020/12/16 05:34:56;;;;;;;76.43;19.93;;;;;;;;;;5092028;28;20478;-72
2020/12/16 05:37:31;;;;;;;81.10;20.33;;;;;;;;;;5095516;28;21031;-72
2020/12/16 05:40:03;;;;;;;104.90;23.20;;;;;;;;;;5095456;28;20464;-73
2020/12/16 05:42:31;;;;;;;97.50;22.43;;;;;;;;;;5095563;28;20513;-73
2020/12/16 05:44:59;;;;;;;90.67;23.03;;;;;;;;;;5095587;28;20938;-73
2020/12/16 05:47:27;;;;;;;80.47;22.00;;;;;;;;;;5095053;28;20447;-73
2020/12/16 05:49:57;;;;;;;97.53;23.63;;;;;;;;;;5095359;28;20517;-73
2020/12/16 05:52:24;;;;;;;71.83;22.43;;;;;;;;;;5094397;28;20860;-73
2020/12/16 05:54:52;;;;;;;75.37;22.93;;;;;;;;;;5095383;28;20735;-73
2020/12/16 05:57:19;;;;;;;89.03;24.03;;;;;;;;;;5094303;28;20462;-73
2020/12/16 06:00:01;;;;;;;71.23;22.20;;;;;;;;;;5094619;28;20452;-73
2020/12/16 06:02:34;;;;;;;68.13;25.97;;;;;;;;;;5090719;28;20981;-73
2020/12/16 06:05:02;;;;;;;88.53;24.60;;;;;;;;;;5095131;28;20554;-73
2020/12/16 06:07:29;;;;;;;74.80;23.43;;;;;;;;;;5095905;28;20459;-73
2020/12/16 06:09:57;;;;;;;81.80;27.50;;;;;;;;;;5097272;28;20452;-73
2020/12/16 06:12:28;;;;;;;72.10;27.37;;;;;;;;;;5098399;28;20522;-73
2020/12/16 06:15:16;;;;;;;81.17;27.70;;;;;;;;;;5097973;28;20467;-74
2020/12/16 06:17:45;;;;;;;72.83;25.70;;;;;;;;;;5097299;28;20471;-73
2020/12/16 06:20:17;;;;;;;74.73;26.73;;;;;;;;;;5097345;28;20460;-73
2020/12/16 06:22:45;;;;;;;76.73;27.07;;;;;;;;;;5098020;28;20467;-73
2020/12/16 06:25:13;;;;;;;61.73;25.33;;;;;;;;;;5098263;28;20464;-73
2020/12/16 06:27:47;;;;;;;67.27;27.57;;;;;;;;;;5097544;28;20918;-73
2020/12/16 06:30:17;;;;;;;75.63;28.60;;;;;;;;;;5097848;28;20483;-73
2020/12/16 06:32:47;;;;;;;64.43;24.83;;;;;;;;;;5098341;28;20887;-73
2020/12/16 06:35:19;;;;;;;65.70;26.17;;;;;;;;;;5098290;28;20457;-73
2020/12/16 06:37:48;;;;;;;58.80;25.03;;;;;;;;;;5079928;28;20460;-73
2020/12/16 06:40:33;;;;;;;60.10;24.77;;;;;;;;;;5098289;28;20467;-73
2020/12/16 06:43:01;;;;;;;64.87;25.37;;;;;;;;;;5097086;28;20452;-73
2020/12/16 06:45:33;;;;;;;71.57;28.27;;;;;;;;;;5096327;28;20735;-73
2020/12/16 06:48:25;;;;;;;67.30;25.13;;;;;;;;;;5098439;28;20491;-73
2020/12/16 06:51:14;;;;;;;70.63;27.50;;;;;;;;;;5097710;28;20487;-73
2020/12/16 06:53:42;;;;;;;59.53;24.93;;;;;;;;;;5097365;28;20484;-73
2020/12/16 06:56:09;;;;;;;57.30;26.10;;;;;;;;;;5097927;28;20775;-73
2020/12/16 06:58:37;;;;;;;63.60;25.63;;;;;;;;;;5096179;28;20899;-73
2020/12/16 07:01:13;;;;;;;57.37;24.90;;;;;;;;;;5096912;28;20456;-72
2020/12/16 07:03:41;;;;;;;59.70;27.43;;;;;;;;;;5095861;28;20444;-73
2020/12/16 07:06:12;;;;;;;71.10;26.70;;;;;;;;;;5096460;28;20555;-73
2020/12/16 07:08:39;;;;;;;62.63;24.90;;;;;;;;;;5096334;28;20470;-73
2020/12/16 07:11:07;;;;;;;71.33;27.40;;;;;;;;;;5096020;28;20488;-73
2020/12/16 07:13:57;;;;;;;64.87;25.93;;;;;;;;;;5098160;28;20514;-73
2020/12/16 07:16:34;;;;;;;53.23;25.80;;;;;;;;;;5094859;28;20514;-73
2020/12/16 07:19:03;;;;;;;62.53;24.90;;;;;;;;;;5094679;28;20456;-73
2020/12/16 07:21:38;;;;;;;57.77;24.77;;;;;;;;;;5089138;28;20471;-73
2020/12/16 07:24:10;;;;;;;57.87;25.87;;;;;;;;;;5097256;28;20890;-73
2020/12/16 07:26:42;;;;;;;52.47;24.00;;;;;;;;;;5096989;28;20859;-73
2020/12/16 07:29:20;;;;;;;49.10;21.20;;;;;;;;;;5096386;28;20464;-73
2020/12/16 07:31:56;;;;;;;44.67;21.67;;;;;;;;;;5095798;28;20553;-73
2020/12/16 07:34:24;;;;;;;51.03;24.60;;;;;;;;;;5092240;28;20466;-73
2020/12/16 07:36:55;;;;;;;43.30;20.73;;;;;;;;;;5096408;28;20440;-73
2020/12/16 07:39:22;;;;;;;44.03;22.57;;;;;;;;;;5110334;28;20463;-73
2020/12/16 07:41:49;;;;;;;49.07;23.90;;;;;;;;;;5108336;28;20455;-73
2020/12/16 07:44:17;;;;;;;47.30;21.57;;;;;;;;;;5090167;28;20459;-71
2020/12/16 07:46:46;;;;;;;40.63;22.17;;;;;;;;;;5106106;28;20458;-72
2020/12/16 07:49:16;;;;;;;43.47;21.90;;;;;;;;;;5117630;28;20941;-72
2020/12/16 07:51:45;;;;;;;47.70;22.90;;;;;;;;;;5108184;28;20476;-72
2020/12/16 07:54:27;;;;;;;42.57;21.03;;;;;;;;;;5087774;28;20461;-71
2020/12/16 07:56:55;;;;;;;45.57;22.33;;;;;;;;;;5088448;28;20445;-71
2020/12/16 07:59:27;;;;;;;47.50;23.40;;;;;;;;;;5081838;28;20456;-71
2020/12/16 08:02:05;;;;;;;41.43;21.87;;;;;;;;;;5080683;28;20480;-71
2020/12/16 08:04:33;;;;;;;41.90;21.57;;;;;;;;;;5076233;28;20468;-71
2020/12/16 08:07:12;;;;;;;38.27;21.43;;;;;;;;;;5075676;28;20892;-71
2020/12/16 08:09:39;;;;;;;43.47;21.27;;;;;;;;;;5075989;28;20741;-72
2020/12/16 08:12:12;;;;;;;41.83;21.40;;;;;;;;;;5076152;28;21006;-72
2020/12/16 08:14:41;;;;;;;45.90;23.83;;;;;;;;;;5075110;28;20556;-73
2020/12/16 08:17:11;;;;;;;42.90;20.30;;;;;;;;;;5083168;28;20475;-72
2020/12/16 08:19:38;;;;;;;51.47;20.33;;;;;;;;;;5095596;28;20456;-72
2020/12/16 08:22:13;;;;;;;41.57;20.67;;;;;;;;;;5095394;28;20463;-72
2020/12/16 08:24:40;;;;;;;48.20;23.33;;;;;;;;;;5095268;28;20460;-72
2020/12/16 08:27:08;;;;;;;46.60;23.00;;;;;;;;;;5096416;28;20448;-72
2020/12/16 08:29:37;;;;;;;40.17;21.20;;;;;;;;;;5095195;28;20513;-72
2020/12/16 08:32:06;;;;;;;49.33;22.57;;;;;;;;;;5095370;28;20487;-73
2020/12/16 08:34:33;;;;;;;46.83;22.43;;;;;;;;;;5080920;28;20486;-72
2020/12/16 08:37:02;;;;;;;45.47;23.60;;;;;;;;;;5076871;28;20766;-71
2020/12/16 08:39:30;;;;;;;45.30;22.60;;;;;;;;;;5076275;28;20551;-71
2020/12/16 08:41:57;;;;;;;44.00;21.40;;;;;;;;;;5078011;28;20464;-72
2020/12/16 08:44:25;;;;;;;45.07;21.03;;;;;;;;;;5074486;28;20464;-72
2020/12/16 08:46:52;;;;;;;45.97;23.30;;;;;;;;;;5077992;28;20492;-71
2020/12/16 08:49:22;;;;;;;40.30;19.80;;;;;;;;;;5076048;28;20582;-71
2020/12/16 08:51:52;;;;;;;37.93;20.97;;;;;;;;;;5074761;28;20524;-71
2020/12/16 08:54:27;;;;;;;47.00;23.10;;;;;;;;;;5074465;28;20449;-72
2020/12/16 08:56:56;;;;;;;44.73;22.50;;;;;;;;;;5080333;28;20580;-71
2020/12/16 08:59:30;;;;;;;43.60;21.43;;;;;;;;;;5100913;28;20578;-70
2020/12/16 09:02:19;;;;;;;39.13;20.20;;;;;;;;;;5094145;28;20458;-71
2020/12/16 09:04:58;;;;;;;38.97;18.97;;;;;;;;;;5095881;28;20474;-72
2020/12/16 09:07:29;;;;;;;39.93;22.80;;;;;;;;;;5092869;28;20452;-70
2020/12/16 09:09:58;;;;;;;36.30;19.83;;;;;;;;;;5093991;28;20464;-71
2020/12/16 09:12:26;;;;;;;41.77;20.40;;;;;;;;;;5092826;28;20476;-71
2020/12/16 09:14:56;;;;;;;42.53;20.73;;;;;;;;;;5093113;28;20464;-71
2020/12/16 09:17:25;;;;;;;35.33;19.30;;;;;;;;;;5095041;28;20452;-71
2020/12/16 09:19:52;;;;;;;31.60;16.27;;;;;;;;;;5094414;28;20460;-72
2020/12/16 09:22:25;;;;;;;27.40;16.73;;;;;;;;;;5094416;28;20508;-71
2020/12/16 09:25:02;;;;;;;27.40;16.77;;;;;;;;;;5085782;28;20551;-72
2020/12/16 09:27:44;;;;;;;30.30;16.30;;;;;;;;;;5081331;28;20470;-71
2020/12/16 09:30:11;;;;;;;25.17;14.40;;;;;;;;;;5093158;28;20459;-71
2020/12/16 09:32:47;;;;;;;27.13;15.90;;;;;;;;;;5090578;28;20511;-71
2020/12/16 09:35:14;;;;;;;27.77;14.53;;;;;;;;;;5086707;28;20456;-71
2020/12/16 09:37:43;;;;;;;28.33;15.23;;;;;;;;;;5080658;28;20486;-71
2020/12/16 09:40:16;;;;;;;30.13;15.50;;;;;;;;;;5076776;28;20483;-72
2020/12/16 09:42:55;;;;;;;31.70;16.50;;;;;;;;;;5094213;28;20468;-71
2020/12/16 09:45:24;;;;;;;33.93;17.00;;;;;;;;;;5094829;28;20471;-71
2020/12/16 09:47:52;;;;;;;34.27;16.83;;;;;;;;;;5095661;28;20444;-72
2020/12/16 09:50:26;;;;;;;63.60;18.03;;;;;;;;;;5095519;28;20451;-72
2020/12/16 09:52:58;;;;;;;40.77;17.77;;;;;;;;;;5095353;28;20797;-72
2020/12/16 09:55:25;;;;;;;47.40;17.90;;;;;;;;;;5094017;28;20601;-71
2020/12/16 09:58:00;;;;;;;39.73;18.50;;;;;;;;;;5095843;28;20452;-72
2020/12/16 10:03:29;;;;;;;37.97;17.57;;;;;;;;;;5045585;28;21068;-72
2020/12/16 10:05:56;;;;;;;47.33;20.80;;;;;;;;;;5075962;28;20467;-73
2020/12/16 10:08:23;;;;;;;54.77;21.13;;;;;;;;;;5074181;28;20457;-72
2020/12/16 10:10:50;;;;;;;51.13;20.73;;;;;;;;;;5090782;28;20514;-72
2020/12/16 10:13:20;;;;;;;51.57;21.90;;;;;;;;;;5094466;28;20445;-72
2020/12/16 10:15:49;;;;;;;47.10;20.50;;;;;;;;;;5094044;28;20514;-73
2020/12/16 10:18:16;;;;;;;47.30;22.53;;;;;;;;;;5097139;28;20449;-72
2020/12/16 10:20:43;;;;;;;46.93;21.33;;;;;;;;;;5095228;28;20456;-71
2020/12/16 10:23:14;;;;;;;49.63;20.13;;;;;;;;;;5095313;28;20456;-73
2020/12/16 10:25:42;;;;;;;46.80;23.23;;;;;;;;;;5090160;28;20481;-72
2020/12/16 10:28:10;;;;;;;52.03;22.10;;;;;;;;;;5073813;28;20457;-72
2020/12/16 10:30:39;;;;;;;47.77;20.97;;;;;;;;;;5073614;28;20888;-72
2020/12/16 10:33:17;;;;;;;47.43;20.53;;;;;;;;;;5075134;28;20876;-72
2020/12/16 10:35:46;;;;;;;41.60;17.97;;;;;;;;;;5080856;28;20456;-71
2020/12/16 10:38:19;;;;;;;40.27;20.53;;;;;;;;;;5087675;28;20727;-72
2020/12/16 10:40:47;;;;;;;41.60;17.50;;;;;;;;;;5075719;28;20457;-72
2020/12/16 10:43:14;;;;;;;42.23;19.33;;;;;;;;;;5074473;28;20453;-72
2020/12/16 10:45:45;;;;;;;39.03;18.57;;;;;;;;;;5077992;28;20457;-73
2020/12/16 10:48:13;;;;;;;45.63;16.57;;;;;;;;;;5073111;28;20513;-73
2020/12/16 10:50:41;;;;;;;28.80;15.60;;;;;;;;;;5077170;28;20516;-72
2020/12/16 10:53:08;;;;;;;30.80;15.70;;;;;;;;;;5088992;28;20433;-71
2020/12/16 10:55:35;;;;;;;38.97;18.80;;;;;;;;;;5095047;28;20452;-72
2020/12/16 10:58:06;;;;;;;37.30;15.63;;;;;;;;;;5084176;28;20505;-73
2020/12/16 11:00:33;;;;;;;31.37;14.83;;;;;;;;;;5078923;28;20533;-72
2020/12/16 11:03:00;;;;;;;36.10;16.80;;;;;;;;;;5079443;28;20492;-72
2020/12/16 11:05:28;;;;;;;31.40;14.90;;;;;;;;;;5097144;28;20456;-72
2020/12/16 11:07:59;;;;;;;29.90;15.47;;;;;;;;;;5093921;28;20464;-72
2020/12/16 11:10:26;;;;;;;32.80;15.73;;;;;;;;;;5100390;28;20483;-72
2020/12/16 11:12:53;;;;;;;39.63;16.77;;;;;;;;;;5096173;28;20491;-71
2020/12/16 11:15:28;;;;;;;31.93;16.03;;;;;;;;;;5098616;28;20959;-72
2020/12/16 11:17:59;;;;;;;27.93;13.80;;;;;;;;;;5099046;28;20538;-72
2020/12/16 11:20:26;;;;;;;37.97;17.23;;;;;;;;;;5097902;28;20456;-74
2020/12/16 11:22:53;;;;;;;44.00;16.50;;;;;;;;;;5096572;28;20890;-73
2020/12/16 11:25:22;;;;;;;38.37;15.93;;;;;;;;;;5098199;28;20499;-73
2020/12/16 11:27:49;;;;;;;37.43;17.47;;;;;;;;;;5093894;28;20463;-72
2020/12/16 11:30:20;;;;;;;34.97;15.20;;;;;;;;;;5111693;28;20452;-73
2020/12/16 11:32:53;;;;;;;36.03;17.40;;;;;;;;;;5117051;28;20483;-73
2020/12/16 11:35:23;;;;;;;37.07;16.27;;;;;;;;;;5104515;28;20472;-73
2020/12/16 11:37:54;;;;;;;35.47;16.30;;;;;;;;;;5098234;28;20452;-72
2020/12/16 11:40:31;;;;;;;34.30;16.03;;;;;;;;;;5096495;28;20760;-73
2020/12/16 11:42:58;;;;;;;31.70;15.40;;;;;;;;;;5086567;28;20460;-72
2020/12/16 11:45:30;;;;;;;34.80;17.07;;;;;;;;;;5080931;28;20536;-73
2020/12/16 11:47:58;;;;;;;33.43;16.60;;;;;;;;;;5075874;28;20453;-72
2020/12/16 11:50:25;;;;;;;35.73;15.37;;;;;;;;;;5089482;28;20452;-72
2020/12/16 11:52:52;;;;;;;33.57;14.43;;;;;;;;;;5090112;28;20962;-72
2020/12/16 11:55:20;;;;;;;29.47;14.03;;;;;;;;;;5076817;28;20445;-73
2020/12/16 11:57:47;;;;;;;32.90;14.40;;;;;;;;;;5076227;28;20745;-73
2020/12/16 12:00:15;;;;;;;34.90;15.93;;;;;;;;;;5076897;28;20474;-73
2020/12/16 12:02:46;;;;;;;35.13;14.80;;;;;;;;;;5102170;28;20805;-72
2020/12/16 12:05:15;;;;;;;35.10;13.70;;;;;;;;;;5098923;28;20459;-72
2020/12/16 12:07:42;;;;;;;31.17;15.63;;;;;;;;;;5097486;28;20467;-72
2020/12/16 12:13:00;;;;;;;35.80;15.63;;;;;;;;;;5095884;28;20480;-72
2020/12/16 12:15:27;;;;;;;37.47;14.97;;;;;;;;;;5097391;28;20776;-74
2020/12/16 12:17:54;;;;;;;31.60;15.80;;;;;;;;;;5097696;28;20885;-73
2020/12/16 12:20:23;;;;;;;42.77;15.70;;;;;;;;;;5079300;28;20453;-73
2020/12/16 12:22:52;;;;;;;39.20;16.50;;;;;;;;;;5113278;28;20455;-73
2020/12/16 12:25:20;;;;;;;30.20;15.40;;;;;;;;;;5108827;28;20884;-73
2020/12/16 12:27:47;;;;;;;42.17;19.47;;;;;;;;;;5097758;28;20436;-73
2020/12/16 12:30:14;;;;;;;37.00;17.10;;;;;;;;;;5096595;28;20487;-73
2020/12/16 12:32:41;;;;;;;37.03;18.50;;;;;;;;;;5096693;28;20484;-73
2020/12/16 12:35:08;;;;;;;35.67;18.33;;;;;;;;;;5096040;28;20696;-73
2020/12/16 12:37:36;;;;;;;40.53;17.43;;;;;;;;;;5100112;28;20883;-73
2020/12/16 12:40:04;;;;;;;40.77;17.17;;;;;;;;;;5096862;28;20464;-73
2020/12/16 12:42:31;;;;;;;39.67;17.00;;;;;;;;;;5099516;28;20448;-73
2020/12/16 12:44:58;;;;;;;37.27;15.63;;;;;;;;;;5092719;28;20465;-73
2020/12/16 12:47:25;;;;;;;39.40;16.87;;;;;;;;;;5076553;28;20445;-72
2020/12/16 12:49:52;;;;;;;41.33;17.83;;;;;;;;;;5075961;28;20453;-72
2020/12/16 12:52:19;;;;;;;44.90;17.23;;;;;;;;;;5076896;28;20898;-72
2020/12/16 12:54:47;;;;;;;43.03;18.60;;;;;;;;;;5074917;28;20445;-72
2020/12/16 12:57:16;;;;;;;45.10;19.60;;;;;;;;;;5079248;28;20459;-73
2020/12/16 12:59:43;;;;;;;49.17;19.20;;;;;;;;;;5095442;28;20452;-73
2020/12/16 13:02:12;;;;;;;44.60;19.70;;;;;;;;;;5095154;28;20856;-72
2020/12/16 13:04:39;;;;;;;39.93;18.50;;;;;;;;;;5094949;28;20467;-72
2020/12/16 13:07:06;;;;;;;47.43;20.47;;;;;;;;;;5095464;28;20444;-72
2020/12/16 13:09:33;;;;;;;46.13;18.70;;;;;;;;;;5096955;28;20894;-73
2020/12/16 13:12:01;;;;;;;41.20;18.83;;;;;;;;;;5101476;28;20491;-72
2020/12/16 13:14:28;;;;;;;40.07;19.00;;;;;;;;;;5097091;28;20460;-72
2020/12/16 13:16:58;;;;;;;52.87;20.23;;;;;;;;;;5093232;28;20475;-73
2020/12/16 13:19:28;;;;;;;46.90;23.23;;;;;;;;;;5094261;28;20471;-74
2020/12/16 13:21:55;;;;;;;47.60;19.87;;;;;;;;;;5094966;28;20444;-72
2020/12/16 13:24:24;;;;;;;41.33;19.30;;;;;;;;;;5083002;28;20906;-73
2020/12/16 13:26:52;;;;;;;52.20;23.00;;;;;;;;;;5075753;28;20477;-72
2020/12/16 13:29:21;;;;;;;40.17;18.60;;;;;;;;;;5089091;28;20452;-73
2020/12/16 13:31:51;;;;;;;45.73;20.03;;;;;;;;;;5094832;28;20777;-72
2020/12/16 13:34:21;;;;;;;37.17;18.53;;;;;;;;;;5093774;28;20505;-72
2020/12/16 13:36:50;;;;;;;46.47;21.80;;;;;;;;;;5094852;28;20468;-72
2020/12/16 13:39:17;;;;;;;41.03;20.33;;;;;;;;;;5094455;28;20919;-72
2020/12/16 13:41:48;;;;;;;47.17;20.10;;;;;;;;;;5094620;28;20548;-73
2020/12/16 13:44:15;;;;;;;38.77;20.00;;;;;;;;;;5094967;28;20440;-73
2020/12/16 13:47:00;;;;;;;42.00;23.47;;;;;;;;;;5092771;28;20468;-73
2020/12/16 13:49:28;;;;;;;43.03;21.03;;;;;;;;;;5089234;28;20766;-72
2020/12/16 13:52:01;;;;;;;41.10;21.83;;;;;;;;;;5093772;28;20753;-73
2020/12/16 13:54:28;;;;;;;42.77;22.00;;;;;;;;;;5093689;28;20444;-73
2020/12/16 13:56:55;;;;;;;42.67;21.43;;;;;;;;;;5093060;28;20456;-72
2020/12/16 13:59:25;;;;;;;39.07;19.70;;;;;;;;;;5093842;28;20830;-72
2020/12/16 14:01:53;;;;;;;40.10;20.40;;;;;;;;;;5094648;28;20468;-72
2020/12/16 14:04:28;;;;;;;38.40;20.00;;;;;;;;;;5094787;28;20452;-73
2020/12/16 14:07:03;;;;;;;35.70;19.73;;;;;;;;;;5092851;28;20498;-72
2020/12/16 14:09:34;;;;;;;40.27;21.40;;;;;;;;;;5088373;28;20462;-73
2020/12/16 14:12:03;;;;;;;35.57;19.53;;;;;;;;;;5085397;28;20481;-73
2020/12/16 14:14:31;;;;;;;37.20;21.20;;;;;;;;;;5094481;28;20444;-72
2020/12/16 14:16:59;;;;;;;41.57;19.67;;;;;;;;;;5093516;28;20482;-72
2020/12/16 14:19:29;;;;;;;34.70;20.07;;;;;;;;;;5093046;28;20454;-73
2020/12/16 14:21:59;;;;;;;43.30;21.57;;;;;;;;;;5085625;28;20465;-71
2020/12/16 14:24:29;;;;;;;43.47;22.20;;;;;;;;;;5073818;28;20457;-74
2020/12/16 14:26:56;;;;;;;47.10;23.20;;;;;;;;;;5074487;28;20488;-72
2020/12/16 14:29:24;;;;;;;41.93;22.50;;;;;;;;;;5075124;28;20468;-72
2020/12/16 14:31:54;;;;;;;39.67;21.50;;;;;;;;;;5095690;28;20953;-72
2020/12/16 14:34:23;;;;;;;41.40;22.17;;;;;;;;;;5082787;28;20555;-72
2020/12/16 14:36:52;;;;;;;39.23;22.27;;;;;;;;;;5086293;28;20476;-72